createdAt,value
2023-07-26T00:00:18.783Z,1.05
2023-07-26T00:02:47.092Z,1.30
2023-07-26T00:05:15.715Z,1.20
2023-07-26T00:07:45.014Z,1.30
2023-07-26T00:10:13.516Z,1.48
2023-07-26T00:12:41.585Z,1.00
2023-07-26T00:15:12.234Z,1.10
2023-07-26T00:17:40.253Z,1.20
2023-07-26T00:20:09.641Z,1.23
2023-07-26T00:22:37.682Z,1.30
2023-07-26T00:25:07.259Z,1.27
2023-07-26T00:27:39.171Z,1.08
2023-07-26T00:30:14.158Z,1.17
2023-07-26T00:32:43.101Z,1.30
2023-07-26T00:35:19.972Z,0.93
2023-07-26T00:37:48.140Z,1.40
2023-07-26T00:40:17.670Z,1.20
2023-07-26T00:42:45.722Z,1.27
2023-07-26T00:45:15.131Z,1.17
2023-07-26T00:47:43.442Z,1.35
2023-07-26T00:50:12.175Z,1.30
2023-07-26T00:52:40.881Z,1.60
2023-07-26T00:55:09.845Z,1.17
2023-07-26T00:57:39.640Z,1.35
2023-07-26T01:00:09.624Z,1.35
2023-07-26T01:02:39.190Z,1.30
2023-07-26T01:05:10.127Z,1.40
2023-07-26T01:07:49.376Z,1.27
2023-07-26T01:10:27.339Z,1.42
2023-07-26T01:12:57.204Z,1.30
2023-07-26T01:15:33.113Z,1.30
2023-07-26T01:18:13.842Z,1.48
2023-07-26T01:20:43.589Z,1.33
2023-07-26T01:23:14.351Z,1.23
2023-07-26T01:25:42.879Z,1.45
2023-07-26T01:28:10.871Z,1.38
2023-07-26T01:30:38.994Z,1.67
2023-07-26T01:33:08.759Z,1.40
2023-07-26T01:35:38.073Z,1.48
2023-07-26T01:38:07.376Z,1.40
2023-07-26T01:40:37.974Z,1.63
2023-07-26T01:43:06.492Z,1.63
2023-07-26T01:45:35.874Z,1.20
2023-07-26T01:48:05.531Z,1.38
2023-07-26T01:50:33.920Z,1.20
2023-07-26T01:53:01.998Z,1.27
2023-07-26T01:55:30.704Z,1.50
2023-07-26T01:58:00.102Z,1.55
2023-07-26T02:00:28.140Z,1.40
2023-07-26T02:02:56.217Z,1.20
2023-07-26T02:05:24.259Z,1.35
2023-07-26T02:07:52.375Z,1.20
2023-07-26T02:10:20.448Z,1.35
2023-07-26T02:12:48.468Z,1.25
2023-07-26T02:15:19.076Z,1.52
2023-07-26T02:17:47.189Z,1.10
2023-07-26T02:20:15.266Z,1.60
2023-07-26T02:22:43.391Z,1.15
2023-07-26T02:25:11.680Z,1.20
2023-07-26T02:27:41.479Z,1.10
2023-07-26T02:30:11.719Z,1.25
2023-07-26T02:32:42.932Z,1.35
2023-07-26T02:35:11.174Z,1.10
2023-07-26T02:37:41.681Z,1.40
2023-07-26T02:40:10.597Z,1.25
2023-07-26T02:42:38.602Z,1.52
2023-07-26T02:45:07.624Z,1.67
2023-07-26T02:47:35.651Z,1.40
2023-07-26T02:50:06.025Z,1.58
2023-07-26T02:52:34.421Z,1.63
2023-07-26T02:55:02.498Z,1.45
2023-07-26T02:57:30.552Z,1.65
2023-07-26T02:59:59.886Z,1.42
2023-07-26T03:02:28.356Z,1.80
2023-07-26T03:04:56.694Z,1.70
2023-07-26T03:07:26.161Z,1.50
2023-07-26T03:09:54.264Z,1.65
2023-07-26T03:12:22.538Z,1.45
2023-07-26T03:14:51.082Z,1.88
2023-07-26T03:17:22.869Z,1.50
2023-07-26T03:19:53.147Z,1.90
2023-07-26T03:22:21.687Z,1.50
2023-07-26T03:24:51.352Z,1.52
2023-07-26T03:27:21.244Z,1.80
2023-07-26T03:29:53.262Z,1.63
2023-07-26T03:32:24.633Z,1.80
2023-07-26T03:34:53.104Z,1.75
2023-07-26T03:37:21.586Z,1.77
2023-07-26T03:39:51.142Z,1.98
2023-07-26T03:42:21.129Z,1.70
2023-07-26T03:44:50.290Z,1.80
2023-07-26T03:47:22.962Z,1.55
2023-07-26T03:49:54.917Z,2.13
2023-07-26T03:52:23.680Z,1.70
2023-07-26T03:54:57.416Z,1.75
2023-07-26T03:57:26.597Z,1.83
2023-07-26T03:59:54.654Z,2.00
2023-07-26T04:02:25.119Z,1.50
2023-07-26T04:04:56.286Z,1.95
2023-07-26T04:07:25.946Z,1.92
2023-07-26T04:10:01.218Z,1.88
2023-07-26T04:12:29.484Z,2.05
2023-07-26T04:14:57.567Z,1.70
2023-07-26T04:17:25.652Z,2.17
2023-07-26T04:19:54.113Z,2.33
2023-07-26T04:22:22.154Z,2.50
2023-07-26T04:24:50.166Z,2.63
2023-07-26T04:27:19.565Z,2.95
2023-07-26T04:29:47.692Z,2.70
2023-07-26T04:32:15.826Z,2.50
2023-07-26T04:34:43.857Z,2.58
2023-07-26T04:37:11.850Z,2.83
2023-07-26T04:39:39.943Z,3.00
2023-07-26T04:42:08.369Z,3.03
2023-07-26T04:44:39.199Z,3.00
2023-07-26T04:47:07.648Z,2.70
2023-07-26T04:49:35.710Z,3.25
2023-07-26T04:52:04.087Z,3.00
2023-07-26T04:54:32.480Z,3.28
2023-07-26T04:57:00.614Z,3.15
2023-07-26T04:59:28.705Z,3.10
2023-07-26T05:01:58.089Z,3.20
2023-07-26T05:04:28.700Z,3.35
2023-07-26T05:06:58.706Z,3.63
2023-07-26T05:09:27.079Z,2.90
2023-07-26T05:11:56.121Z,2.58
2023-07-26T05:14:24.711Z,2.88
2023-07-26T05:16:53.128Z,2.63
2023-07-26T05:19:23.918Z,2.50
2023-07-26T05:21:57.722Z,2.75
2023-07-26T05:25:15.723Z,2.60
2023-07-26T05:27:44.987Z,2.67
2023-07-26T05:30:14.242Z,3.08
2023-07-26T05:32:45.502Z,3.35
2023-07-26T05:35:15.068Z,3.22
2023-07-26T05:37:43.438Z,3.00
2023-07-26T05:40:12.520Z,3.08
2023-07-26T05:42:43.675Z,3.25
2023-07-26T05:45:13.604Z,3.05
2023-07-26T05:47:41.779Z,3.75
2023-07-26T05:50:12.374Z,3.15
2023-07-26T05:52:43.521Z,3.30
2023-07-26T05:55:14.724Z,3.10
2023-07-26T05:57:44.736Z,3.95
2023-07-26T06:00:15.872Z,3.40
2023-07-26T06:02:44.179Z,3.83
2023-07-26T06:05:13.410Z,3.33
2023-07-26T06:07:43.194Z,3.70
2023-07-26T06:10:12.885Z,3.20
2023-07-26T06:12:41.568Z,3.65
2023-07-26T06:15:11.120Z,3.33
2023-07-26T06:17:41.364Z,3.78
2023-07-26T06:20:11.988Z,3.88
2023-07-26T06:22:40.265Z,3.00
2023-07-26T06:25:10.263Z,2.25
2023-07-26T06:27:38.542Z,2.25
2023-07-26T06:30:08.127Z,2.75
2023-07-26T06:32:36.226Z,2.45
2023-07-26T06:35:04.700Z,2.22
2023-07-26T06:37:32.968Z,2.88
2023-07-26T06:40:04.937Z,2.60
2023-07-26T06:42:37.295Z,2.80
2023-07-26T06:45:07.378Z,2.97
2023-07-26T06:47:38.806Z,2.92
2023-07-26T06:52:50.858Z,3.00
2023-07-26T06:55:19.223Z,3.63
2023-07-26T06:57:49.503Z,3.10
2023-07-26T07:00:19.563Z,3.67
2023-07-26T07:02:47.830Z,3.60
2023-07-26T07:05:16.612Z,3.22
2023-07-26T07:07:46.872Z,3.20
2023-07-26T07:10:18.368Z,3.30
2023-07-26T07:12:46.384Z,3.22
2023-07-26T07:15:17.063Z,3.20
2023-07-26T07:17:45.176Z,2.70
2023-07-26T07:20:13.902Z,3.00
2023-07-26T07:22:42.148Z,2.78
2023-07-26T07:25:11.151Z,2.95
2023-07-26T07:27:39.182Z,3.10
2023-07-26T07:30:13.812Z,2.83
2023-07-26T07:32:43.886Z,2.53
2023-07-26T07:35:15.064Z,3.00
2023-07-26T07:37:44.116Z,2.17
2023-07-26T07:40:15.566Z,2.70
2023-07-26T07:42:45.200Z,2.53
2023-07-26T07:45:13.249Z,2.88
2023-07-26T07:47:45.515Z,2.60
2023-07-26T07:50:13.521Z,2.53
2023-07-26T07:52:43.261Z,2.85
2023-07-26T07:55:11.379Z,2.50
2023-07-26T07:57:40.119Z,2.80
2023-07-26T08:00:10.616Z,3.35
2023-07-26T08:02:39.372Z,2.42
2023-07-26T08:05:11.010Z,2.83
2023-07-26T08:07:39.296Z,2.20
2023-07-26T08:10:08.959Z,2.40
2023-07-26T08:12:37.272Z,2.63
2023-07-26T08:15:06.119Z,2.67
2023-07-26T08:17:35.612Z,2.60
2023-07-26T08:20:05.402Z,2.60
2023-07-26T08:22:35.368Z,2.70
2023-07-26T08:25:05.351Z,2.42
2023-07-26T08:27:33.907Z,2.50
2023-07-26T08:30:04.898Z,2.40
2023-07-26T08:32:36.827Z,2.30
2023-07-26T08:35:07.894Z,2.70
2023-07-26T08:37:37.390Z,2.40
2023-07-26T08:40:06.958Z,3.13
2023-07-26T08:42:35.614Z,2.45
2023-07-26T08:45:05.670Z,2.15
2023-07-26T08:47:40.340Z,2.33
2023-07-26T08:50:11.636Z,2.63
2023-07-26T08:52:43.342Z,2.28
2023-07-26T08:55:12.538Z,2.60
2023-07-26T08:57:42.579Z,2.50
2023-07-26T09:00:14.951Z,2.70
2023-07-26T09:02:46.361Z,2.60
2023-07-26T09:05:14.946Z,2.47
2023-07-26T09:07:45.331Z,2.47
2023-07-26T09:10:13.438Z,2.50
2023-07-26T09:12:41.506Z,2.78
2023-07-26T09:15:11.523Z,2.60
2023-07-26T09:17:41.174Z,2.10
2023-07-26T09:20:22.227Z,2.05
2023-07-26T09:23:00.518Z,2.50
2023-07-26T09:25:33.528Z,2.38
2023-07-26T09:28:02.221Z,2.80
2023-07-26T09:30:30.565Z,2.40
2023-07-26T09:32:59.071Z,2.67
2023-07-26T09:35:27.482Z,2.70
2023-07-26T09:38:00.112Z,2.55
2023-07-26T09:40:38.582Z,2.65
2023-07-26T09:43:09.779Z,2.47
2023-07-26T09:45:39.605Z,2.67
2023-07-26T09:48:20.810Z,2.50
2023-07-26T09:50:53.622Z,3.70
2023-07-26T09:53:24.751Z,2.75
2023-07-26T09:58:33.753Z,2.17
2023-07-26T10:01:04.035Z,2.65
2023-07-26T10:03:36.280Z,2.63
2023-07-26T10:06:05.065Z,2.08
2023-07-26T10:08:39.566Z,2.58
2023-07-26T10:11:09.614Z,2.38
2023-07-26T10:13:39.628Z,2.40
2023-07-26T10:16:08.762Z,2.47
2023-07-26T10:18:38.001Z,2.63
2023-07-26T10:21:09.025Z,2.50
2023-07-26T10:23:39.162Z,2.38
2023-07-26T10:26:08.222Z,2.50
2023-07-26T10:28:38.335Z,2.58
2023-07-26T10:31:06.394Z,2.72
2023-07-26T10:33:37.198Z,2.45
2023-07-26T10:36:08.764Z,3.25
2023-07-26T10:38:44.443Z,3.45
2023-07-26T10:41:30.753Z,2.72
2023-07-26T10:44:08.208Z,2.50
2023-07-26T10:46:50.128Z,2.80
2023-07-26T10:49:22.677Z,2.30
2023-07-26T10:51:58.549Z,2.10
2023-07-26T10:54:51.715Z,2.50
2023-07-26T10:57:29.886Z,2.25
2023-07-26T11:00:00.863Z,2.78
2023-07-26T11:02:44.624Z,1.95
2023-07-26T11:05:15.654Z,2.55
2023-07-26T11:07:53.867Z,2.60
2023-07-26T11:10:24.727Z,2.78
2023-07-26T11:13:06.021Z,2.40
2023-07-26T11:16:12.410Z,2.65
2023-07-26T11:18:23.607Z,2.20
2023-07-26T11:20:54.166Z,2.35
2023-07-26T11:23:28.001Z,2.75
2023-07-26T11:26:01.401Z,2.45
2023-07-26T11:28:33.157Z,3.00
2023-07-26T11:31:02.048Z,2.60
2023-07-26T11:33:31.444Z,2.65
2023-07-26T11:36:03.150Z,2.53
2023-07-26T11:38:33.659Z,2.60
2023-07-26T11:41:03.932Z,2.60
2023-07-26T11:43:33.364Z,3.17
2023-07-26T11:46:02.121Z,2.70
2023-07-26T11:48:33.966Z,2.30
2023-07-26T11:51:05.516Z,2.67
2023-07-26T11:53:43.494Z,2.70
2023-07-26T11:56:17.823Z,2.40
2023-07-26T11:58:46.455Z,3.50
2023-07-26T12:01:15.923Z,2.65
2023-07-26T12:03:45.680Z,2.67
2023-07-26T12:06:14.172Z,2.47
2023-07-26T12:08:43.331Z,2.70
2023-07-26T12:11:11.429Z,3.38
2023-07-26T12:13:40.844Z,2.97
2023-07-26T12:16:10.800Z,3.00
2023-07-26T12:18:53.664Z,2.25
2023-07-26T12:21:26.566Z,2.80
2023-07-26T12:23:56.671Z,2.97
2023-07-26T12:26:26.248Z,2.53
2023-07-26T12:28:56.258Z,2.35
2023-07-26T12:31:26.537Z,2.63
2023-07-26T12:34:02.675Z,2.63
2023-07-26T12:36:47.520Z,2.38
2023-07-26T12:39:17.740Z,2.67
2023-07-26T12:41:47.127Z,2.60
2023-07-26T12:44:18.191Z,2.97
2023-07-26T12:49:21.315Z,2.25
2023-07-26T12:51:50.512Z,2.55
2023-07-26T12:54:19.509Z,2.25
2023-07-26T12:56:48.255Z,2.42
2023-07-26T12:59:18.605Z,2.67
2023-07-26T13:01:48.265Z,2.17
2023-07-26T13:04:17.127Z,2.42
2023-07-26T13:06:45.328Z,2.28
2023-07-26T13:09:13.353Z,2.55
2023-07-26T13:11:42.508Z,2.40
2023-07-26T13:14:10.549Z,2.08
2023-07-26T13:16:43.230Z,2.38
2023-07-26T13:19:11.337Z,2.60
2023-07-26T13:21:48.433Z,2.22
2023-07-26T13:24:19.495Z,2.45
2023-07-26T13:26:49.223Z,2.35
2023-07-26T13:29:17.332Z,2.35
2023-07-26T13:31:50.042Z,2.45
2023-07-26T13:34:29.906Z,2.38
2023-07-26T13:36:58.383Z,2.20
2023-07-26T13:39:26.763Z,2.13
2023-07-26T13:41:56.541Z,2.60
2023-07-26T13:44:26.491Z,2.63
2023-07-26T13:46:56.122Z,2.13
2023-07-26T13:49:24.532Z,2.05
2023-07-26T13:51:52.652Z,2.08
2023-07-26T13:54:20.723Z,1.63
2023-07-26T13:56:48.803Z,1.95
2023-07-26T13:59:18.666Z,1.90
2023-07-26T14:01:46.779Z,1.73
2023-07-26T14:04:18.664Z,2.10
2023-07-26T14:06:46.726Z,1.88
2023-07-26T14:09:15.101Z,2.17
2023-07-26T14:11:43.218Z,2.10
2023-07-26T14:14:13.711Z,1.80
2023-07-26T14:16:42.205Z,2.10
2023-07-26T14:19:10.510Z,2.10
2023-07-26T14:21:39.952Z,2.22
2023-07-26T14:24:08.217Z,1.95
2023-07-26T14:26:36.428Z,2.28
2023-07-26T14:29:04.522Z,2.47
2023-07-26T14:31:32.645Z,2.70
2023-07-26T14:34:04.625Z,2.15
2023-07-26T14:36:34.288Z,2.05
2023-07-26T14:39:04.761Z,1.92
2023-07-26T14:41:34.615Z,1.70
2023-07-26T14:44:03.364Z,2.25
2023-07-26T14:46:34.586Z,2.17
2023-07-26T14:49:02.835Z,2.22
2023-07-26T14:51:30.842Z,2.30
2023-07-26T14:53:59.078Z,2.20
2023-07-26T14:56:28.945Z,1.80
2023-07-26T14:58:57.767Z,1.73
2023-07-26T15:01:27.179Z,2.15
2023-07-26T15:03:56.736Z,2.03
2023-07-26T15:06:26.182Z,2.10
2023-07-26T15:11:24.390Z,2.08
2023-07-26T15:13:54.005Z,2.20
2023-07-26T15:16:22.336Z,1.90
2023-07-26T15:18:50.488Z,2.20
2023-07-26T15:21:18.621Z,2.00
2023-07-26T15:23:48.459Z,1.80
2023-07-26T15:26:17.503Z,1.90
2023-07-26T15:28:45.856Z,2.08
2023-07-26T15:31:17.731Z,1.73
2023-07-26T15:33:45.851Z,1.70
2023-07-26T15:36:13.911Z,1.73
2023-07-26T15:38:41.888Z,1.92
2023-07-26T15:46:36.941Z,1.58
2023-07-26T15:49:03.259Z,1.30
2023-07-26T15:51:32.454Z,1.40
2023-07-26T15:54:00.860Z,1.40
2023-07-26T15:56:29.922Z,1.40
2023-07-26T15:58:58.360Z,1.95
2023-07-26T16:01:26.432Z,1.70
2023-07-26T16:03:54.573Z,1.45
2023-07-26T16:06:28.489Z,1.65
2023-07-26T16:09:28.040Z,1.50
2023-07-26T16:19:18.726Z,1.65
2023-07-26T16:21:51.042Z,1.50
2023-07-26T16:24:19.174Z,1.98
2023-07-26T16:26:47.596Z,1.77
2023-07-26T16:29:15.624Z,1.40
2023-07-26T16:31:43.634Z,1.40
2023-07-26T16:34:11.679Z,1.50
2023-07-26T16:36:39.697Z,1.65
2023-07-26T16:39:09.144Z,1.63
2023-07-26T16:41:37.213Z,1.42
2023-07-26T16:44:05.966Z,1.33
2023-07-26T16:46:52.109Z,2.03
2023-07-26T16:49:22.140Z,1.65
2023-07-26T16:51:50.099Z,1.40
2023-07-26T16:54:19.575Z,1.38
2023-07-26T16:56:47.545Z,1.45
2023-07-26T16:59:16.510Z,1.30
2023-07-26T17:01:44.876Z,1.45
2023-07-26T17:04:14.185Z,1.70
2023-07-26T17:06:43.513Z,1.90
2023-07-26T17:09:11.692Z,1.63
2023-07-26T17:11:41.306Z,1.55
2023-07-26T17:14:09.457Z,1.35
2023-07-26T17:16:37.891Z,2.50
2023-07-26T17:19:06.178Z,1.63
2023-07-26T17:21:34.302Z,1.60
2023-07-26T17:24:04.699Z,1.55
2023-07-26T17:26:33.308Z,1.70
2023-07-26T17:29:05.764Z,1.52
2023-07-26T17:31:37.046Z,1.92
2023-07-26T17:34:06.901Z,1.60
2023-07-26T17:36:35.305Z,1.50
2023-07-26T17:39:09.386Z,1.70
2023-07-26T17:41:37.531Z,1.60
2023-07-26T17:44:07.236Z,2.10
2023-07-26T17:46:35.357Z,1.90
2023-07-26T17:49:03.527Z,1.60
2023-07-26T17:51:31.612Z,1.77
2023-07-26T17:53:59.652Z,2.08
2023-07-26T17:56:27.786Z,1.92
2023-07-26T17:58:55.811Z,2.00
2023-07-26T18:01:25.223Z,2.00
2023-07-26T18:03:54.740Z,1.90
2023-07-26T18:06:26.461Z,2.60
2023-07-26T18:08:56.986Z,2.25
2023-07-26T18:11:25.479Z,2.20
2023-07-26T18:14:13.501Z,1.98
2023-07-26T18:16:43.399Z,2.00
2023-07-26T18:19:14.178Z,1.80
2023-07-26T18:21:42.242Z,2.00
2023-07-26T18:24:10.401Z,1.73
2023-07-26T18:26:43.352Z,1.73
2023-07-26T18:29:13.255Z,1.70
2023-07-26T18:31:42.634Z,1.60
2023-07-26T18:34:11.227Z,2.10
2023-07-26T18:36:39.464Z,1.70
2023-07-26T18:39:07.600Z,2.13
2023-07-26T18:41:35.646Z,2.05
2023-07-26T18:44:04.065Z,1.73
2023-07-26T18:46:32.111Z,2.05
2023-07-26T18:49:01.519Z,1.85
2023-07-26T18:51:29.568Z,1.80
2023-07-26T18:53:57.639Z,2.10
2023-07-26T18:56:25.737Z,2.10
2023-07-26T18:58:53.874Z,2.30
2023-07-26T19:01:21.981Z,2.33
2023-07-26T19:03:52.459Z,2.40
2023-07-26T19:06:22.009Z,1.80
2023-07-26T19:08:50.314Z,2.45
2023-07-26T19:11:18.810Z,2.00
2023-07-26T19:13:47.501Z,2.10
2023-07-26T19:16:18.373Z,2.60
2023-07-26T19:18:46.419Z,2.53
2023-07-26T19:24:56.233Z,2.38
2023-07-26T19:27:24.710Z,2.10
2023-07-26T19:30:04.230Z,2.25
2023-07-26T19:32:44.124Z,2.30
2023-07-26T19:35:13.439Z,2.50
2023-07-26T19:37:43.793Z,2.40
2023-07-26T19:40:15.281Z,2.30
2023-07-26T19:42:43.373Z,2.78
2023-07-26T19:45:14.009Z,2.42
2023-07-26T19:47:43.355Z,2.28
2023-07-26T19:50:12.885Z,2.45
2023-07-26T19:52:42.240Z,2.45
2023-07-26T19:55:11.377Z,2.60
2023-07-26T19:57:39.442Z,2.97
2023-07-26T20:00:08.825Z,2.30
2023-07-26T20:02:36.936Z,2.60
2023-07-26T20:05:05.389Z,2.58
2023-07-26T20:07:33.429Z,2.58
2023-07-26T20:10:02.900Z,2.70
2023-07-26T20:12:30.976Z,3.03
2023-07-26T20:15:00.968Z,3.08
2023-07-26T20:17:31.724Z,2.40
2023-07-26T20:20:01.322Z,2.47
2023-07-26T20:22:29.356Z,2.20
2023-07-26T20:24:57.459Z,2.92
2023-07-26T20:27:28.582Z,2.60
2023-07-26T20:29:56.645Z,2.60
2023-07-26T20:32:24.709Z,2.92
2023-07-26T20:34:52.786Z,2.22
2023-07-26T20:37:22.166Z,2.95
2023-07-26T20:39:50.330Z,2.70
2023-07-26T20:42:18.579Z,2.60
2023-07-26T20:44:48.115Z,2.60
2023-07-26T20:47:16.240Z,2.47
2023-07-26T20:49:44.734Z,3.15
2023-07-26T20:52:12.890Z,3.15
2023-07-26T20:54:40.981Z,3.17
2023-07-26T20:57:09.236Z,3.30
2023-07-26T20:59:37.221Z,3.15
2023-07-26T21:02:06.810Z,3.05
2023-07-26T21:04:35.421Z,3.00
2023-07-26T21:07:03.804Z,3.00
2023-07-26T21:09:32.123Z,3.08
2023-07-26T21:12:00.163Z,2.85
2023-07-26T21:14:28.202Z,2.47
2023-07-26T21:16:56.373Z,2.95
2023-07-26T21:19:25.791Z,3.55
2023-07-26T21:21:53.929Z,3.28
2023-07-26T21:24:21.947Z,2.80
2023-07-26T21:26:49.992Z,3.00
2023-07-26T21:29:18.247Z,2.60
2023-07-26T21:31:46.318Z,2.65
2023-07-26T21:34:14.397Z,3.05
2023-07-26T21:36:43.910Z,3.13
2023-07-26T21:39:11.924Z,3.00
2023-07-26T21:41:39.896Z,2.80
2023-07-26T21:44:07.887Z,2.88
2023-07-26T21:46:36.070Z,2.53
2023-07-26T21:49:04.700Z,2.83
2023-07-26T21:51:32.759Z,3.08
2023-07-26T21:54:02.426Z,2.97
2023-07-26T21:56:30.530Z,3.10
2023-07-26T21:58:58.598Z,2.67
2023-07-26T22:01:26.656Z,2.65
2023-07-26T22:03:56.894Z,3.13
2023-07-26T22:06:26.019Z,3.03
2023-07-26T22:08:54.044Z,2.78
2023-07-26T22:11:23.503Z,2.90
2023-07-26T22:13:51.545Z,2.78
2023-07-26T22:16:19.608Z,2.88
2023-07-26T22:18:47.706Z,2.60
2023-07-26T22:21:17.282Z,3.28
2023-07-26T22:23:46.147Z,2.80
2023-07-26T22:26:30.107Z,3.15
2023-07-26T22:28:59.842Z,3.13
2023-07-26T22:31:28.009Z,3.00
2023-07-26T22:33:56.162Z,2.42
2023-07-26T22:36:26.060Z,2.42
2023-07-26T22:38:54.316Z,2.92
2023-07-26T22:41:23.039Z,3.08
2023-07-26T22:43:51.403Z,2.90
2023-07-26T22:46:21.120Z,2.97
2023-07-26T22:48:49.168Z,3.28
2023-07-26T22:51:17.239Z,3.47
2023-07-26T22:53:49.458Z,2.95
2023-07-26T22:56:17.593Z,3.08
2023-07-26T22:58:45.722Z,2.88
2023-07-26T23:01:13.728Z,3.22
2023-07-26T23:03:44.061Z,2.83
2023-07-26T23:06:12.128Z,3.15
2023-07-26T23:08:40.129Z,2.70
2023-07-26T23:11:08.769Z,2.92
2023-07-26T23:13:37.761Z,3.10
2023-07-26T23:16:06.901Z,2.42
2023-07-26T23:18:34.948Z,2.38
2023-07-26T23:21:04.296Z,1.95
2023-07-26T23:23:32.784Z,1.90
2023-07-26T23:26:00.886Z,1.60
2023-07-26T23:28:28.975Z,1.70
2023-07-26T23:30:57.280Z,1.98
2023-07-26T23:33:25.352Z,1.77
2023-07-26T23:35:53.457Z,2.30
2023-07-26T23:38:22.854Z,1.70
2023-07-26T23:40:50.839Z,1.65
2023-07-26T23:43:21.258Z,1.50
2023-07-26T23:45:49.349Z,1.70
2023-07-26T23:48:18.463Z,1.85
2023-07-26T23:50:47.286Z,1.50
2023-07-26T23:53:15.589Z,1.70
2023-07-26T23:55:46.488Z,1.50
2023-07-26T23:58:16.532Z,1.58
